createdAt,value
2022-08-17T03:32:28.331Z,99830.91
2022-08-17T03:35:36.385Z,99830.91
2022-08-17T03:38:39.633Z,99839.50
2022-08-17T03:41:42.460Z,99836.84
2022-08-17T03:44:49.408Z,99847.34
2022-08-17T03:48:10.822Z,99843.00
2022-08-17T03:51:41.533Z,99854.50
2022-08-17T03:55:03.985Z,99844.56
2022-08-17T03:58:06.675Z,99845.69
2022-08-17T04:01:11.764Z,99850.34
2022-08-17T04:04:14.809Z,99853.19
2022-08-17T04:07:19.541Z,99847.84
2022-08-17T04:10:26.455Z,99862.66
2022-08-17T04:13:29.219Z,99862.09
2022-08-17T04:16:32.327Z,99861.41
2022-08-17T04:19:34.978Z,99864.78
2022-08-17T04:22:38.580Z,99861.28
2022-08-17T04:25:47.791Z,99860.41
2022-08-17T04:28:52.044Z,99862.78
2022-08-17T04:31:54.789Z,99857.97
2022-08-17T04:34:57.631Z,99869.34
2022-08-17T04:38:00.380Z,99863.28
2022-08-17T04:41:23.564Z,99873.69
2022-08-17T04:44:28.327Z,99885.88
2022-08-17T04:47:40.902Z,99886.69
2022-08-17T04:50:46.660Z,99882.97
2022-08-17T04:53:54.303Z,99885.44
2022-08-17T04:56:57.926Z,99882.72
2022-08-17T05:00:00.884Z,99890.69
2022-08-17T05:03:06.297Z,99890.31
2022-08-17T05:06:09.565Z,99891.69
2022-08-17T05:09:12.372Z,99897.59
2022-08-17T05:12:15.992Z,99891.06
2022-08-17T05:15:18.508Z,99900.41
2022-08-17T05:18:24.468Z,99904.06
2022-08-17T05:21:27.659Z,99907.91
2022-08-17T05:24:38.330Z,99906.81
2022-08-17T05:27:45.737Z,99907.09
2022-08-17T05:30:49.756Z,99905.50
2022-08-17T05:33:53.329Z,99908.28
2022-08-17T05:36:56.148Z,99900.66
2022-08-17T05:39:58.902Z,99901.59
2022-08-17T05:43:14.067Z,99897.44
2022-08-17T05:46:22.191Z,99902.87
2022-08-17T05:49:27.655Z,99905.44
2022-08-17T05:52:50.314Z,99904.28
2022-08-17T05:56:07.107Z,99897.09
2022-08-17T05:59:57.191Z,99908.72
2022-08-17T06:03:18.813Z,99912.75
2022-08-17T06:06:32.510Z,99921.12
2022-08-17T06:09:52.425Z,99909.53
2022-08-17T06:13:07.489Z,99910.16
2022-08-17T06:16:33.191Z,99919.22
2022-08-17T06:19:45.537Z,99914.97
2022-08-17T06:22:53.577Z,99919.91
2022-08-17T06:26:03.779Z,99924.09
2022-08-17T06:29:39.052Z,99931.34
2022-08-17T06:32:47.529Z,99928.47
2022-08-17T06:36:26.430Z,99931.56
2022-08-17T06:39:53.865Z,99931.69
2022-08-17T06:43:18.194Z,99925.28
2022-08-17T06:46:29.961Z,99928.78
2022-08-17T06:49:55.247Z,99923.59
2022-08-17T06:53:11.841Z,99927.72
2022-08-17T06:56:27.068Z,99923.94
2022-08-17T06:59:58.775Z,99931.94
2022-08-17T07:03:06.753Z,99929.50
2022-08-17T07:06:25.159Z,99930.91
2022-08-17T07:09:46.022Z,99937.09
2022-08-17T07:12:52.085Z,99930.31
2022-08-17T07:16:04.780Z,99940.06
2022-08-17T07:19:10.908Z,99935.41
2022-08-17T07:22:26.257Z,99939.06
2022-08-17T07:25:30.467Z,99941.94
2022-08-17T07:28:34.946Z,99929.97
2022-08-17T07:31:37.852Z,99933.34
2022-08-17T07:35:15.726Z,99931.50
2022-08-17T07:38:28.265Z,99931.25
2022-08-17T07:41:57.941Z,99935.62
2022-08-17T07:45:19.382Z,99937.56
2022-08-17T07:48:25.951Z,99937.78
2022-08-17T07:51:37.369Z,99942.50
2022-08-17T07:54:42.737Z,99928.38
2022-08-17T07:57:56.917Z,99930.16
2022-08-17T08:01:04.976Z,99930.06
2022-08-17T08:04:59.334Z,99935.06
2022-08-17T08:07:54.247Z,99937.59
2022-08-17T08:11:07.481Z,99941.00
2022-08-17T08:14:29.793Z,99937.09
2022-08-17T08:17:44.872Z,99936.91
2022-08-17T08:21:01.948Z,99937.16
2022-08-17T08:24:36.806Z,99936.56
2022-08-17T08:27:50.097Z,99931.72
2022-08-17T08:31:24.386Z,99937.56
2022-08-17T08:35:01.908Z,99934.41
2022-08-17T08:38:29.309Z,99939.37
2022-08-17T08:41:54.643Z,99942.09
2022-08-17T08:45:20.609Z,99937.28
2022-08-17T08:48:53.836Z,99936.66
2022-08-17T08:51:58.353Z,99932.00
2022-08-17T08:55:14.885Z,99933.78
2022-08-17T08:58:31.773Z,99929.34
2022-08-17T09:02:16.689Z,99925.72
2022-08-17T09:05:49.926Z,99922.22
2022-08-17T09:09:12.832Z,99920.59
2022-08-17T09:12:29.298Z,99924.87
2022-08-17T09:15:47.519Z,99916.69
2022-08-17T09:18:59.820Z,99924.37
2022-08-17T09:22:25.154Z,99918.66
2022-08-17T09:25:33.133Z,99920.66
2022-08-17T09:28:38.786Z,99923.19
2022-08-17T09:31:55.241Z,99922.19
2022-08-17T09:35:03.563Z,99920.16
2022-08-17T09:38:32.808Z,99924.16
2022-08-17T09:41:48.534Z,99913.31
2022-08-17T09:45:03.998Z,99915.13
2022-08-17T09:48:19.008Z,99910.69
2022-08-17T09:51:34.932Z,99906.50
2022-08-17T09:54:40.875Z,99894.69
2022-08-17T09:58:05.189Z,99890.94
2022-08-17T10:01:26.259Z,99890.88
2022-08-17T10:04:50.138Z,99889.94
2022-08-17T10:08:00.376Z,99895.41
2022-08-17T10:11:33.328Z,99899.56
2022-08-17T10:15:07.697Z,99896.59
2022-08-17T10:18:34.325Z,99901.63
2022-08-17T10:22:01.567Z,99900.44
2022-08-17T10:25:53.917Z,99904.47
2022-08-17T10:29:19.774Z,99897.09
2022-08-17T10:32:38.429Z,99889.97
2022-08-17T10:35:57.224Z,99881.53
2022-08-17T10:39:20.968Z,99884.78
2022-08-17T10:43:02.124Z,99890.66
2022-08-17T10:46:30.060Z,99894.00
2022-08-17T10:49:36.615Z,99896.09
2022-08-17T10:52:42.875Z,99886.72
2022-08-17T10:56:14.407Z,99906.19
2022-08-17T10:59:35.352Z,99885.50
2022-08-17T11:02:50.433Z,99890.44
2022-08-17T11:06:12.740Z,99887.22
2022-08-17T11:09:19.950Z,99880.84
2022-08-17T11:12:49.796Z,99879.78
2022-08-17T11:16:11.006Z,99880.06
2022-08-17T11:19:29.092Z,99879.00
2022-08-17T11:22:34.510Z,99879.66
2022-08-17T11:25:43.695Z,99873.06
2022-08-17T11:28:52.696Z,99856.63
2022-08-17T11:32:13.706Z,99867.03
2022-08-17T11:35:22.211Z,99857.75
2022-08-17T11:38:36.897Z,99858.63
2022-08-17T11:41:49.699Z,99854.72
2022-08-17T11:45:32.566Z,99856.87
2022-08-17T11:49:01.841Z,99856.81
2022-08-17T11:52:05.042Z,99856.34
2022-08-17T11:55:34.418Z,99847.56
2022-08-17T11:58:45.163Z,99852.94
2022-08-17T12:01:56.692Z,99840.66
2022-08-17T12:05:12.031Z,99835.41
2022-08-17T12:08:20.058Z,99838.44
2022-08-17T12:12:11.042Z,99834.28
2022-08-17T12:15:10.110Z,99836.38
2022-08-17T12:18:31.785Z,99834.84
2022-08-17T12:22:11.531Z,99832.72
2022-08-17T12:25:40.519Z,99826.22
2022-08-17T12:28:57.244Z,99818.53
2022-08-17T12:32:02.182Z,99814.25
2022-08-17T12:35:29.586Z,99822.84
2022-08-17T12:38:37.120Z,99813.84
2022-08-17T12:41:44.317Z,99813.66
2022-08-17T12:44:50.334Z,99810.97
2022-08-17T12:48:07.780Z,99815.72
2022-08-17T12:51:12.740Z,99808.53
2022-08-17T12:54:29.247Z,99807.62
2022-08-17T12:57:38.016Z,99795.78
2022-08-17T13:00:48.769Z,99789.13
2022-08-17T13:03:55.160Z,99792.91
2022-08-17T13:06:59.890Z,99769.12
2022-08-17T13:10:04.363Z,99765.81
2022-08-17T13:13:20.827Z,99772.44
2022-08-17T13:16:27.942Z,99778.53
2022-08-17T13:19:40.352Z,99780.66
2022-08-17T13:22:53.199Z,99787.84
2022-08-17T13:26:09.443Z,99791.19
2022-08-17T13:29:28.716Z,99786.41
2022-08-17T13:32:31.222Z,99783.06
2022-08-17T13:35:49.315Z,99766.78
2022-08-17T13:39:06.616Z,99768.03
2022-08-17T13:42:32.954Z,99762.59
2022-08-17T13:46:22.194Z,99768.78
2022-08-17T13:49:26.201Z,99764.72
2022-08-17T13:52:51.950Z,99762.97
2022-08-17T13:55:59.340Z,99760.44
2022-08-17T13:59:09.321Z,99755.75
2022-08-17T14:02:16.435Z,99732.94
2022-08-17T14:05:19.306Z,99735.34
2022-08-17T14:08:22.004Z,99718.31
2022-08-17T14:11:26.934Z,99715.78
2022-08-17T14:14:29.965Z,99721.91
2022-08-17T14:17:38.461Z,99715.53
2022-08-17T14:20:43.137Z,99710.13
2022-08-17T14:23:54.461Z,99711.56
2022-08-17T14:26:59.375Z,99720.81
2022-08-17T14:30:07.848Z,99725.88
2022-08-17T14:33:11.712Z,99724.78
2022-08-17T14:36:14.707Z,99731.59
2022-08-17T14:39:18.680Z,99731.44
2022-08-17T14:42:26.378Z,99726.28
2022-08-17T14:45:31.813Z,99718.69
2022-08-17T14:48:38.576Z,99704.19
2022-08-17T14:51:43.912Z,99699.66
2022-08-17T14:54:52.321Z,99710.00
2022-08-17T14:57:55.017Z,99719.25
2022-08-17T15:00:58.355Z,99726.72
2022-08-17T15:04:01.059Z,99728.47
2022-08-17T15:07:04.587Z,99738.06
2022-08-17T15:10:09.120Z,99727.34
2022-08-17T15:13:17.922Z,99732.72
2022-08-17T15:16:20.771Z,99731.25
2022-08-17T15:19:23.673Z,99741.66
2022-08-17T15:22:30.064Z,99735.31
2022-08-17T15:25:33.364Z,99733.59
2022-08-17T15:28:36.023Z,99737.72
2022-08-17T15:31:39.535Z,99737.84
2022-08-17T15:34:42.207Z,99737.41
2022-08-17T15:37:45.557Z,99732.50
